Řízení letového provozu České republiky
Letiste: LKNA Aktualizace: 09.12.2016 11:08:05  UTC
 METAR LKNA 09.12. 11:00 ...
METAR LKNA 091100Z 29010KT 9999 FEW016 BKN050 06/02 Q1027 NOSIG=
 TAF LKNA 09.12. 05:00 ...
TAF LKNA 090500Z 0906/1006 15002KT 0500 FZFG VV001      PROB40 TEMPO 0910/0912 27010KT 3000 BR BKN010      BECMG 0912/0914 33014G24KT=